createdAt,value
2022-10-11T00:00:33.695Z,8.37
2022-10-11T00:01:33.828Z,8.37
2022-10-11T00:02:34.605Z,8.40
2022-10-11T00:03:33.872Z,8.40
2022-10-11T00:04:33.628Z,8.36
2022-10-11T00:05:33.668Z,8.32
2022-10-11T00:06:33.635Z,8.22
2022-10-11T00:07:33.773Z,8.14
2022-10-11T00:08:33.711Z,8.07
2022-10-11T00:09:33.626Z,7.97
2022-10-11T00:10:33.567Z,7.93
2022-10-11T00:11:34.512Z,7.85
2022-10-11T00:12:33.608Z,7.85
2022-10-11T00:13:33.523Z,7.84
2022-10-11T00:14:33.500Z,7.82
2022-10-11T00:15:33.539Z,7.78
2022-10-11T00:16:33.516Z,7.74
2022-10-11T00:17:33.490Z,7.78
2022-10-11T00:18:33.460Z,7.79
2022-10-11T00:19:33.700Z,7.78
2022-10-11T00:20:33.482Z,7.74
2022-10-11T00:21:34.320Z,7.71
2022-10-11T00:22:33.416Z,7.71
2022-10-11T00:23:33.488Z,7.77
2022-10-11T00:24:33.414Z,7.75
2022-10-11T00:25:34.339Z,7.75
2022-10-11T00:26:33.573Z,7.71
2022-10-11T00:27:33.328Z,7.66
2022-10-11T00:28:33.459Z,7.59
2022-10-11T00:29:33.451Z,7.56
2022-10-11T00:30:33.340Z,7.55
2022-10-11T00:31:35.665Z,7.50
2022-10-11T00:32:33.273Z,7.47
2022-10-11T00:33:33.302Z,7.45
2022-10-11T00:34:33.262Z,7.49
2022-10-11T00:35:33.222Z,7.50
2022-10-11T00:36:33.251Z,7.49
2022-10-11T00:37:33.274Z,7.45
2022-10-11T00:38:33.209Z,7.41
2022-10-11T00:39:33.182Z,7.44
2022-10-11T00:40:33.275Z,7.58
2022-10-11T00:41:33.192Z,7.63
2022-10-11T00:42:33.172Z,7.59
2022-10-11T00:43:33.189Z,7.53
2022-10-11T00:44:33.151Z,7.47
2022-10-11T00:45:34.064Z,7.40
2022-10-11T00:46:33.963Z,7.38
2022-10-11T00:47:33.092Z,7.34
2022-10-11T00:48:34.287Z,7.32
2022-10-11T00:49:34.044Z,7.29
2022-10-11T00:50:33.045Z,7.24
2022-10-11T00:51:33.077Z,7.23
2022-10-11T00:52:33.053Z,7.20
2022-10-11T00:53:33.035Z,7.20
2022-10-11T00:54:33.374Z,7.22
2022-10-11T00:55:34.126Z,7.24
2022-10-11T00:56:33.924Z,7.23
2022-10-11T00:57:33.364Z,7.24
2022-10-11T00:58:32.997Z,7.24
2022-10-11T00:59:33.168Z,7.24
2022-10-11T01:00:32.905Z,7.20
2022-10-11T01:01:33.390Z,7.26
2022-10-11T01:02:32.868Z,7.23
2022-10-11T01:03:33.872Z,7.38
2022-10-11T01:04:32.856Z,7.41
2022-10-11T01:05:32.886Z,7.55
2022-10-11T01:06:34.094Z,7.60
2022-10-11T01:07:32.816Z,7.60
2022-10-11T01:08:33.147Z,7.56
2022-10-11T01:09:32.848Z,7.53
2022-10-11T01:10:32.897Z,7.53
2022-10-11T01:11:32.798Z,7.50
2022-10-11T01:12:33.520Z,7.55
2022-10-11T01:13:32.730Z,7.53
2022-10-11T01:14:33.838Z,7.47
2022-10-11T01:15:32.735Z,7.41
2022-10-11T01:16:32.817Z,7.38
2022-10-11T01:17:32.692Z,7.34
2022-10-11T01:18:32.689Z,7.32
2022-10-11T01:19:32.687Z,7.32
2022-10-11T01:20:32.648Z,7.35
2022-10-11T01:21:32.713Z,7.37
2022-10-11T01:22:32.641Z,7.37
2022-10-11T01:23:32.608Z,7.34
2022-10-11T01:24:32.642Z,7.26
2022-10-11T01:25:32.584Z,7.23
2022-10-11T01:26:32.878Z,7.19
2022-10-11T01:27:32.778Z,7.16
2022-10-11T01:28:32.627Z,7.07
2022-10-11T01:29:32.560Z,7.08
2022-10-11T01:30:32.510Z,7.05
2022-10-11T01:31:32.560Z,7.02
2022-10-11T01:32:32.477Z,6.99
2022-10-11T01:33:32.453Z,6.97
2022-10-11T01:34:33.453Z,6.90
2022-10-11T01:35:32.465Z,6.84
2022-10-11T01:36:32.451Z,6.79
2022-10-11T01:37:32.504Z,6.72
2022-10-11T01:38:33.581Z,6.69
2022-10-11T01:39:32.464Z,6.59
2022-10-11T01:40:33.392Z,6.54
2022-10-11T01:41:32.413Z,6.56
2022-10-11T01:42:32.378Z,6.61
2022-10-11T01:43:32.344Z,6.76
2022-10-11T01:44:32.325Z,6.80
2022-10-11T01:45:32.386Z,6.81
2022-10-11T01:46:32.387Z,6.80
2022-10-11T01:47:32.619Z,6.77
2022-10-11T01:48:32.262Z,6.72
2022-10-11T01:49:32.290Z,6.66
2022-10-11T01:50:32.295Z,6.58
2022-10-11T01:51:32.256Z,6.51
2022-10-11T01:52:33.284Z,6.50
2022-10-11T01:53:32.226Z,6.53
2022-10-11T01:54:50.220Z,6.51
2022-10-11T01:55:33.164Z,6.46
2022-10-11T01:56:33.395Z,6.47
2022-10-11T01:57:32.546Z,6.47
2022-10-11T01:58:32.158Z,6.44
2022-10-11T01:59:32.135Z,6.46
2022-10-11T02:00:32.163Z,6.46
2022-10-11T02:01:32.225Z,6.47
2022-10-11T02:02:32.269Z,6.62
2022-10-11T02:03:32.136Z,6.77
2022-10-11T02:04:32.270Z,6.83
2022-10-11T02:05:32.048Z,6.83
2022-10-11T02:06:32.045Z,6.81
2022-10-11T02:07:32.008Z,6.81
2022-10-11T02:08:32.058Z,6.83
2022-10-11T02:09:32.600Z,6.86
2022-10-11T02:10:32.021Z,6.80
2022-10-11T02:11:31.980Z,6.76
2022-10-11T02:12:31.975Z,6.66
2022-10-11T02:13:33.416Z,6.69
2022-10-11T02:14:33.063Z,6.72
2022-10-11T02:15:31.973Z,6.72
2022-10-11T02:16:31.927Z,6.72
2022-10-11T02:17:31.907Z,6.76
2022-10-11T02:18:31.894Z,6.77
2022-10-11T02:19:31.887Z,6.79
2022-10-11T02:20:32.621Z,6.79
2022-10-11T02:21:33.040Z,6.76
2022-10-11T02:22:32.095Z,6.72
2022-10-11T02:23:31.827Z,6.68
2022-10-11T02:24:32.747Z,6.76
2022-10-11T02:25:33.240Z,6.77
2022-10-11T02:26:32.032Z,6.76
2022-10-11T02:27:32.108Z,6.72
2022-10-11T02:28:31.832Z,6.69
2022-10-11T02:29:31.799Z,6.68
2022-10-11T02:30:31.826Z,6.63
2022-10-11T02:31:31.790Z,6.68
2022-10-11T02:32:31.720Z,6.66
2022-10-11T02:33:31.803Z,6.63
2022-10-11T02:34:31.747Z,6.63
2022-10-11T02:35:31.671Z,6.66
2022-10-11T02:36:31.791Z,6.65
2022-10-11T02:37:31.691Z,6.68
2022-10-11T02:38:31.692Z,6.68
2022-10-11T02:39:31.652Z,6.71
2022-10-11T02:40:31.636Z,6.69
2022-10-11T02:41:31.672Z,6.68
2022-10-11T02:42:31.713Z,6.76
2022-10-11T02:43:31.745Z,6.83
2022-10-11T02:44:31.552Z,6.84
2022-10-11T02:45:31.553Z,6.81
2022-10-11T02:46:31.571Z,6.79
2022-10-11T02:47:31.553Z,6.73
2022-10-11T02:48:31.484Z,6.69
2022-10-11T02:49:31.529Z,6.68
2022-10-11T02:50:31.562Z,6.63
2022-10-11T02:51:31.475Z,6.66
2022-10-11T02:52:31.430Z,6.72
2022-10-11T02:53:32.525Z,6.83
2022-10-11T02:54:31.595Z,6.83
2022-10-11T02:55:31.407Z,6.81
2022-10-11T02:56:32.435Z,6.72
2022-10-11T02:57:31.435Z,6.69
2022-10-11T02:58:31.367Z,6.65
2022-10-11T02:59:31.355Z,6.62
2022-10-11T03:00:32.364Z,6.63
2022-10-11T03:01:32.309Z,6.61
2022-10-11T03:02:31.327Z,6.61
2022-10-11T03:03:31.318Z,6.53
2022-10-11T03:04:31.444Z,6.48
2022-10-11T03:05:31.448Z,6.43
2022-10-11T03:06:31.335Z,6.40
2022-10-11T03:07:31.276Z,6.38
2022-10-11T03:08:31.316Z,6.33
2022-10-11T03:09:31.411Z,6.30
2022-10-11T03:10:31.279Z,6.28
2022-10-11T03:11:31.180Z,6.33
2022-10-11T03:12:32.239Z,6.41
2022-10-11T03:13:31.380Z,6.46
2022-10-11T03:14:31.264Z,6.44
2022-10-11T03:15:31.168Z,6.40
2022-10-11T03:16:31.235Z,6.32
2022-10-11T03:17:36.489Z,6.26
2022-10-11T03:18:32.179Z,6.21
2022-10-11T03:19:31.116Z,6.18
2022-10-11T03:20:31.196Z,6.10
2022-10-11T03:21:31.869Z,6.07
2022-10-11T03:22:31.067Z,6.03
2022-10-11T03:23:31.790Z,5.96
2022-10-11T03:24:31.016Z,5.96
2022-10-11T03:25:31.024Z,6.01
2022-10-11T03:26:31.015Z,6.14
2022-10-11T03:27:32.507Z,6.19
2022-10-11T03:28:31.063Z,6.22
2022-10-11T03:29:30.990Z,6.22
2022-10-11T03:30:30.990Z,6.18
2022-10-11T03:31:31.043Z,6.14
2022-10-11T03:32:30.998Z,6.11
2022-10-11T03:33:30.915Z,6.09
2022-10-11T03:34:31.104Z,6.07
2022-10-11T03:35:30.897Z,6.04
2022-10-11T03:36:30.930Z,6.06
2022-10-11T03:37:30.863Z,6.06
2022-10-11T03:38:30.870Z,6.06
2022-10-11T03:39:30.923Z,6.10
2022-10-11T03:40:30.991Z,6.09
2022-10-11T03:41:30.822Z,6.06
2022-10-11T03:42:30.859Z,6.03
2022-10-11T03:43:31.822Z,5.98
2022-10-11T03:44:31.728Z,5.93
2022-10-11T03:45:30.833Z,5.91
2022-10-11T03:46:30.819Z,5.91
2022-10-11T03:47:31.956Z,5.89
2022-10-11T03:48:30.891Z,5.88
2022-10-11T03:49:30.693Z,5.86
2022-10-11T03:50:30.712Z,5.83
2022-10-11T03:51:30.703Z,5.83
2022-10-11T03:52:30.833Z,5.85
2022-10-11T03:53:30.652Z,5.88
2022-10-11T03:54:30.656Z,5.83
2022-10-11T03:55:30.684Z,5.83
2022-10-11T03:56:30.692Z,5.83
2022-10-11T03:57:31.516Z,5.83
2022-10-11T03:58:30.716Z,5.92
2022-10-11T03:59:31.827Z,6.04
2022-10-11T04:00:30.685Z,6.09
2022-10-11T04:01:30.579Z,6.13
2022-10-11T04:02:30.593Z,6.14
2022-10-11T04:03:30.570Z,6.21
2022-10-11T04:04:30.986Z,6.22
2022-10-11T04:05:30.507Z,6.19
2022-10-11T04:06:30.506Z,6.14
2022-10-11T04:07:30.527Z,6.09
2022-10-11T04:08:30.583Z,6.03
2022-10-11T04:09:30.455Z,5.96
2022-10-11T04:10:30.486Z,5.96
2022-10-11T04:11:30.511Z,5.93
2022-10-11T04:12:30.445Z,5.93
2022-10-11T04:13:30.456Z,6.01
2022-10-11T04:14:30.491Z,6.03
2022-10-11T04:15:30.416Z,6.00
2022-10-11T04:16:30.339Z,5.96
2022-10-11T04:17:30.582Z,5.93
2022-10-11T04:18:30.355Z,5.91
2022-10-11T04:19:30.340Z,6.00
2022-10-11T04:20:30.290Z,6.10
2022-10-11T04:21:30.295Z,6.25
2022-10-11T04:22:30.271Z,6.29
2022-10-11T04:23:30.311Z,6.28
2022-10-11T04:24:30.370Z,6.28
2022-10-11T04:25:30.268Z,6.22
2022-10-11T04:26:31.195Z,6.22
2022-10-11T04:27:30.288Z,6.28
2022-10-11T04:28:30.248Z,6.26
2022-10-11T04:29:32.743Z,6.22
2022-10-11T04:30:30.209Z,6.16
2022-10-11T04:31:31.306Z,6.11
2022-10-11T04:32:30.211Z,6.03
2022-10-11T04:33:30.160Z,5.93
2022-10-11T04:34:30.148Z,5.85
2022-10-11T04:35:30.122Z,5.81
2022-10-11T04:36:30.121Z,5.74
2022-10-11T04:37:30.106Z,5.73
2022-10-11T04:38:30.096Z,5.71
2022-10-11T04:39:30.094Z,5.67
2022-10-11T04:40:30.164Z,5.67
2022-10-11T04:41:30.063Z,5.66
2022-10-11T04:42:31.003Z,5.64
2022-10-11T04:43:30.181Z,5.56
2022-10-11T04:44:30.062Z,5.52
2022-10-11T04:45:30.991Z,5.52
2022-10-11T04:46:30.925Z,5.48
2022-10-11T04:47:29.992Z,5.45
2022-10-11T04:48:30.182Z,5.37
2022-10-11T04:49:29.994Z,5.32
2022-10-11T04:50:29.967Z,5.27
2022-10-11T04:51:30.026Z,5.23
2022-10-11T04:52:30.072Z,5.17
2022-10-11T04:53:30.704Z,5.14
2022-10-11T04:54:30.856Z,5.12
2022-10-11T04:55:29.890Z,5.09
2022-10-11T04:56:29.911Z,5.04
2022-10-11T04:57:30.032Z,5.01
2022-10-11T04:58:29.943Z,4.96
2022-10-11T04:59:29.883Z,4.95
2022-10-11T05:00:30.579Z,4.91
2022-10-11T05:01:30.993Z,4.89
2022-10-11T05:02:29.877Z,4.88
2022-10-11T05:03:29.793Z,4.84
2022-10-11T05:04:29.926Z,4.77
2022-10-11T05:05:29.841Z,4.77
2022-10-11T05:06:29.789Z,4.75
2022-10-11T05:07:30.652Z,4.75
2022-10-11T05:08:29.987Z,4.75
2022-10-11T05:09:29.683Z,4.70
2022-10-11T05:10:29.695Z,4.70
2022-10-11T05:11:29.663Z,4.69
2022-10-11T05:12:29.676Z,4.65
2022-10-11T05:13:29.651Z,4.62
2022-10-11T05:14:29.695Z,4.61
2022-10-11T05:15:29.939Z,4.54
2022-10-11T05:16:29.596Z,4.57
2022-10-11T05:17:29.677Z,4.54
2022-10-11T05:18:29.542Z,4.57
2022-10-11T05:19:29.537Z,4.61
2022-10-11T05:20:29.519Z,4.59
2022-10-11T05:21:29.518Z,4.65
2022-10-11T05:22:29.510Z,4.70
2022-10-11T05:23:29.484Z,4.73
2022-10-11T05:24:29.497Z,4.75
2022-10-11T05:25:29.454Z,4.76
2022-10-11T05:26:29.477Z,4.76
2022-10-11T05:27:29.461Z,4.77
2022-10-11T05:28:30.486Z,4.79
2022-10-11T05:29:29.487Z,4.75
2022-10-11T05:30:29.415Z,4.75
2022-10-11T05:31:30.154Z,4.70
2022-10-11T05:32:29.488Z,4.64
2022-10-11T05:33:30.476Z,4.62
2022-10-11T05:34:29.394Z,4.59
2022-10-11T05:35:29.341Z,4.55
2022-10-11T05:36:29.334Z,4.50
2022-10-11T05:37:29.463Z,4.50
2022-10-11T05:38:29.318Z,4.47
2022-10-11T05:39:29.275Z,4.47
2022-10-11T05:40:29.269Z,4.47
2022-10-11T05:41:29.287Z,4.44
2022-10-11T05:42:29.311Z,4.44
2022-10-11T05:43:29.238Z,4.44
2022-10-11T05:44:29.205Z,4.42
2022-10-11T05:45:29.247Z,4.39
2022-10-11T05:46:29.229Z,4.36
2022-10-11T05:47:29.210Z,4.34
2022-10-11T05:48:29.155Z,4.34
2022-10-11T05:49:29.143Z,4.34
2022-10-11T05:50:29.165Z,4.33
2022-10-11T05:51:29.149Z,4.36
2022-10-11T05:52:29.133Z,4.37
2022-10-11T05:53:29.080Z,4.40
2022-10-11T05:54:30.015Z,4.42
2022-10-11T05:55:29.083Z,4.42
2022-10-11T05:56:29.068Z,4.42
2022-10-11T05:57:29.111Z,4.44
2022-10-11T05:58:29.087Z,4.44
2022-10-11T05:59:29.092Z,4.44
2022-10-11T06:00:29.051Z,4.44
2022-10-11T06:01:29.097Z,4.44
2022-10-11T06:02:28.983Z,4.47
2022-10-11T06:03:29.022Z,4.50
2022-10-11T06:04:28.978Z,4.51
2022-10-11T06:05:28.968Z,4.54
2022-10-11T06:06:28.945Z,4.59
2022-10-11T06:07:29.003Z,4.62
2022-10-11T06:08:28.991Z,4.65
2022-10-11T06:09:28.883Z,4.69
2022-10-11T06:10:28.965Z,4.73
2022-10-11T06:11:28.863Z,4.76
2022-10-11T06:12:28.924Z,4.84
2022-10-11T06:13:28.867Z,4.86
2022-10-11T06:14:28.860Z,4.89
2022-10-11T06:15:28.811Z,4.94
2022-10-11T06:16:28.817Z,4.95
2022-10-11T06:17:28.841Z,4.96
2022-10-11T06:18:28.795Z,4.99
2022-10-11T06:19:28.855Z,5.02
2022-10-11T06:20:28.910Z,5.07
2022-10-11T06:21:28.765Z,5.07
2022-10-11T06:22:28.783Z,5.10
2022-10-11T06:23:28.695Z,5.13
2022-10-11T06:24:28.740Z,5.14
2022-10-11T06:25:28.720Z,5.17
2022-10-11T06:26:28.667Z,5.27
2022-10-11T06:27:28.680Z,5.34
2022-10-11T06:28:28.749Z,5.40
2022-10-11T06:29:28.701Z,5.46
2022-10-11T06:30:28.675Z,5.59
2022-10-11T06:31:28.610Z,5.70
2022-10-11T06:32:28.575Z,5.73
2022-10-11T06:33:28.573Z,5.77
2022-10-11T06:34:28.693Z,5.78
2022-10-11T06:35:28.575Z,5.81
2022-10-11T06:36:28.550Z,5.85
2022-10-11T06:37:28.525Z,5.89
2022-10-11T06:38:28.550Z,5.92
2022-10-11T06:39:28.532Z,5.95
2022-10-11T06:40:28.500Z,6.03
2022-10-11T06:41:28.507Z,6.10
2022-10-11T06:42:28.536Z,6.13
2022-10-11T06:43:28.479Z,6.21
2022-10-11T06:44:28.438Z,6.26
2022-10-11T06:45:28.432Z,6.30
2022-10-11T06:46:28.448Z,6.35
2022-10-11T06:47:28.407Z,6.40
2022-10-11T06:48:28.437Z,6.41
2022-10-11T06:49:28.418Z,6.46
2022-10-11T06:50:54.418Z,6.53
2022-10-11T06:51:29.420Z,6.68
2022-10-11T06:52:28.418Z,6.76
2022-10-11T06:53:28.399Z,6.80
2022-10-11T06:54:28.373Z,6.87
2022-10-11T06:55:29.343Z,6.94
2022-10-11T06:56:28.431Z,6.95
2022-10-11T06:57:28.300Z,6.99
2022-10-11T06:58:28.269Z,7.07
2022-10-11T06:59:28.299Z,7.15
2022-10-11T07:00:28.258Z,7.20
2022-10-11T07:01:28.326Z,7.24
2022-10-11T07:02:28.271Z,7.31
2022-10-11T07:03:28.209Z,7.35
2022-10-11T07:04:28.200Z,7.40
2022-10-11T07:05:28.159Z,7.42
2022-10-11T07:06:28.191Z,7.44
2022-10-11T07:07:28.146Z,7.44
2022-10-11T07:08:29.044Z,7.45
2022-10-11T07:09:28.115Z,7.52
2022-10-11T07:10:28.111Z,7.52
2022-10-11T07:11:28.151Z,7.55
2022-10-11T07:12:28.092Z,7.56
2022-10-11T07:13:28.130Z,7.59
2022-10-11T07:14:28.119Z,7.63
2022-10-11T07:15:28.062Z,7.66
2022-10-11T07:16:28.024Z,7.71
2022-10-11T07:17:28.039Z,7.74
2022-10-11T07:18:27.998Z,7.77
2022-10-11T07:19:28.023Z,7.79
2022-10-11T07:20:27.998Z,7.84
2022-10-11T07:21:28.026Z,7.87
2022-10-11T07:22:28.017Z,7.92
2022-10-11T07:23:27.923Z,7.96
2022-10-11T07:24:27.997Z,8.02
2022-10-11T07:25:27.974Z,8.08
2022-10-11T07:26:27.894Z,8.14
2022-10-11T07:27:28.756Z,8.14
2022-10-11T07:28:28.010Z,8.18
2022-10-11T07:29:27.863Z,8.21
2022-10-11T07:30:27.868Z,8.26
2022-10-11T07:31:27.856Z,8.30
2022-10-11T07:32:27.918Z,8.32
2022-10-11T07:33:27.793Z,8.36
2022-10-11T07:34:27.817Z,8.39
2022-10-11T07:35:27.786Z,8.45
2022-10-11T07:36:27.770Z,8.48
2022-10-11T07:37:27.846Z,8.48
2022-10-11T07:38:27.821Z,8.55
2022-10-11T07:39:27.759Z,8.58
2022-10-11T07:40:27.757Z,8.58
2022-10-11T07:41:27.736Z,8.63
2022-10-11T07:42:27.665Z,8.68
2022-10-11T07:43:27.737Z,8.72
2022-10-11T07:44:27.678Z,8.78
2022-10-11T07:45:27.668Z,8.79
2022-10-11T07:46:27.627Z,8.81
2022-10-11T07:47:27.634Z,8.81
2022-10-11T07:48:27.642Z,8.86
2022-10-11T07:49:27.654Z,8.90
2022-10-11T07:50:27.618Z,8.94
2022-10-11T07:51:27.571Z,8.99
2022-10-11T07:52:27.548Z,9.04
2022-10-11T07:53:27.580Z,9.09
2022-10-11T07:54:27.551Z,9.13
2022-10-11T07:55:27.538Z,9.15
2022-10-11T07:56:27.488Z,9.16
2022-10-11T07:57:27.478Z,9.21
2022-10-11T07:58:27.517Z,9.24
2022-10-11T07:59:27.542Z,9.28
2022-10-11T08:00:27.463Z,9.31
2022-10-11T08:01:27.614Z,9.35
2022-10-11T08:02:27.457Z,9.40
2022-10-11T08:03:27.413Z,9.46
2022-10-11T08:04:28.283Z,9.48
2022-10-11T08:05:27.390Z,9.49
2022-10-11T08:06:27.388Z,9.57
2022-10-11T08:07:27.571Z,9.61
2022-10-11T08:08:27.341Z,9.64
2022-10-11T08:09:27.360Z,9.68
2022-10-11T08:10:27.350Z,9.75
2022-10-11T08:11:27.351Z,9.81
2022-10-11T08:12:27.310Z,9.82
2022-10-11T08:13:27.326Z,9.83
2022-10-11T08:14:27.763Z,9.88
2022-10-11T08:15:27.273Z,9.91
2022-10-11T08:16:27.277Z,9.99
2022-10-11T08:17:27.362Z,10.03
2022-10-11T08:18:27.224Z,10.06
2022-10-11T08:19:27.261Z,10.03
2022-10-11T08:20:27.211Z,10.04
2022-10-11T08:21:27.205Z,10.06
2022-10-11T08:22:27.243Z,10.09
2022-10-11T08:23:27.204Z,10.10
2022-10-11T08:24:27.532Z,10.14
2022-10-11T08:25:27.117Z,10.15
2022-10-11T08:26:27.164Z,10.18
2022-10-11T08:27:27.097Z,10.21
2022-10-11T08:28:27.129Z,10.25
2022-10-11T08:29:27.083Z,10.28
2022-10-11T08:30:27.108Z,10.30
2022-10-11T08:31:27.078Z,10.36
2022-10-11T08:32:27.067Z,10.34
2022-10-11T08:33:27.075Z,10.40
2022-10-11T08:34:27.038Z,10.40
2022-10-11T08:35:27.050Z,10.44
2022-10-11T08:36:27.039Z,10.51
2022-10-11T08:37:26.989Z,10.55
2022-10-11T08:38:26.996Z,10.60
2022-10-11T08:39:26.959Z,10.62
2022-10-11T08:40:30.379Z,10.60
2022-10-11T08:41:27.948Z,10.63
2022-10-11T08:42:26.917Z,10.70
2022-10-11T08:43:26.910Z,10.73
2022-10-11T08:44:26.989Z,10.77
2022-10-11T08:45:26.923Z,10.76
2022-10-11T08:46:26.886Z,10.80
2022-10-11T08:47:26.876Z,10.81
2022-10-11T08:48:26.819Z,10.84
2022-10-11T08:49:26.866Z,10.88
2022-10-11T08:50:26.819Z,10.92
2022-10-11T08:51:26.781Z,10.94
2022-10-11T08:52:26.921Z,10.92
2022-10-11T08:53:26.827Z,10.96
2022-10-11T08:54:26.827Z,11.01
2022-10-11T08:55:26.779Z,11.10
2022-10-11T08:56:26.760Z,11.16
2022-10-11T08:57:26.921Z,11.19
2022-10-11T08:58:26.687Z,11.27
2022-10-11T08:59:26.669Z,11.32
2022-10-11T09:00:26.661Z,11.36
2022-10-11T09:01:26.740Z,11.43
2022-10-11T09:02:31.816Z,11.50
2022-10-11T09:03:27.664Z,11.54
2022-10-11T09:04:26.643Z,11.57
2022-10-11T09:05:27.532Z,11.54
2022-10-11T09:06:26.674Z,11.59
2022-10-11T09:07:26.631Z,11.62
2022-10-11T09:08:26.667Z,11.68
2022-10-11T09:09:26.535Z,11.74
2022-10-11T09:10:26.557Z,11.77
2022-10-11T09:11:26.635Z,11.82
2022-10-11T09:12:31.011Z,11.80
2022-10-11T09:13:27.507Z,11.78
2022-10-11T09:14:26.496Z,11.77
2022-10-11T09:15:26.490Z,11.82
2022-10-11T09:16:26.465Z,11.83
2022-10-11T09:17:26.615Z,11.82
2022-10-11T09:18:26.468Z,11.85
2022-10-11T09:19:26.423Z,11.87
2022-10-11T09:20:26.387Z,11.89
2022-10-11T09:21:26.404Z,11.94
2022-10-11T09:22:30.619Z,11.97
2022-10-11T09:23:26.466Z,11.97
2022-10-11T09:24:26.353Z,12.01
2022-10-11T09:25:26.334Z,12.04
2022-10-11T09:26:26.378Z,12.06
2022-10-11T09:27:50.246Z,12.11
2022-10-11T09:28:27.499Z,12.20
2022-10-11T09:29:26.268Z,12.29
2022-10-11T09:30:26.269Z,12.34
2022-10-11T09:31:26.318Z,12.38
2022-10-11T09:32:26.278Z,12.42
2022-10-11T09:33:26.287Z,12.48
2022-10-11T09:34:26.246Z,12.52
2022-10-11T09:35:26.234Z,12.57
2022-10-11T09:36:26.177Z,12.63
2022-10-11T09:37:26.241Z,12.64
2022-10-11T09:38:26.251Z,12.63
2022-10-11T09:39:26.164Z,12.67
2022-10-11T09:40:26.144Z,12.71
2022-10-11T09:41:26.121Z,12.74
2022-10-11T09:42:26.149Z,12.79
2022-10-11T09:43:26.148Z,12.84
2022-10-11T09:44:26.111Z,12.87
2022-10-11T09:45:26.111Z,12.89
2022-10-11T09:46:26.181Z,12.89
2022-10-11T09:47:26.084Z,12.95
2022-10-11T09:48:26.994Z,12.95
2022-10-11T09:49:26.022Z,13.03
2022-10-11T09:50:26.043Z,13.06
2022-10-11T09:51:26.051Z,13.09
2022-10-11T09:52:26.013Z,13.11
2022-10-11T09:53:27.021Z,13.15
2022-10-11T09:54:25.978Z,13.12
2022-10-11T09:55:25.976Z,13.11
2022-10-11T09:56:25.934Z,13.14
2022-10-11T09:57:25.915Z,13.15
2022-10-11T09:58:27.051Z,13.21
2022-10-11T09:59:26.043Z,13.27
2022-10-11T10:00:26.190Z,13.32
2022-10-11T10:01:25.907Z,13.40
2022-10-11T10:02:25.857Z,13.40
2022-10-11T10:03:25.811Z,13.43
2022-10-11T10:04:25.862Z,13.44
2022-10-11T10:05:25.851Z,13.49
2022-10-11T10:06:26.716Z,13.46
2022-10-11T10:07:25.807Z,13.49
2022-10-11T10:08:26.604Z,13.49
2022-10-11T10:09:25.855Z,13.55
2022-10-11T10:10:26.924Z,13.54
2022-10-11T10:11:25.900Z,13.61
2022-10-11T10:12:25.737Z,13.70
2022-10-11T10:13:25.770Z,13.76
2022-10-11T10:14:25.718Z,13.83
2022-10-11T10:15:25.684Z,13.92
2022-10-11T10:16:25.682Z,14.06
2022-10-11T10:17:25.720Z,14.13
2022-10-11T10:18:25.687Z,14.16
2022-10-11T10:19:25.942Z,14.14
2022-10-11T10:20:25.718Z,14.21
2022-10-11T10:21:25.760Z,14.21
2022-10-11T10:22:25.599Z,14.27
2022-10-11T10:23:25.603Z,14.34
2022-10-11T10:24:25.578Z,14.42
2022-10-11T10:25:25.547Z,14.43
2022-10-11T10:26:26.409Z,14.42
2022-10-11T10:27:25.560Z,14.46
2022-10-11T10:28:25.629Z,14.43
2022-10-11T10:29:25.528Z,14.42
2022-10-11T10:30:25.482Z,14.49
2022-10-11T10:31:25.472Z,14.50
2022-10-11T10:32:26.296Z,14.57
2022-10-11T10:33:25.474Z,14.62
2022-10-11T10:34:25.454Z,14.64
2022-10-11T10:35:25.457Z,14.65
2022-10-11T10:36:25.431Z,14.65
2022-10-11T10:37:25.471Z,14.67
2022-10-11T10:38:26.740Z,14.65
2022-10-11T10:39:25.401Z,14.69
2022-10-11T10:40:25.340Z,14.80
2022-10-11T10:41:25.354Z,14.84
2022-10-11T10:42:25.379Z,14.95
2022-10-11T10:43:25.327Z,15.03
2022-10-11T10:44:26.242Z,15.06
2022-10-11T10:45:25.475Z,15.12
2022-10-11T10:46:25.271Z,15.19
2022-10-11T10:47:25.324Z,15.17
2022-10-11T10:48:25.234Z,15.19
2022-10-11T10:50:26.239Z,15.21
2022-10-11T10:51:25.239Z,15.19
2022-10-11T10:52:25.237Z,15.01
2022-10-11T10:53:25.237Z,14.93
2022-10-11T10:54:25.147Z,14.80
2022-10-11T10:55:25.143Z,14.86
2022-10-11T10:56:25.174Z,14.91
2022-10-11T10:57:25.189Z,14.94
2022-10-11T10:58:25.176Z,14.98
2022-10-11T10:59:25.115Z,14.98
2022-10-11T11:00:25.094Z,15.01
2022-10-11T11:01:25.164Z,14.98
2022-10-11T11:02:41.541Z,14.93
2022-10-11T11:03:26.101Z,14.86
2022-10-11T11:04:25.047Z,14.84
2022-10-11T11:05:25.087Z,14.91
2022-10-11T11:06:25.027Z,14.91
2022-10-11T11:07:25.023Z,14.95
2022-10-11T11:08:25.277Z,14.94
2022-10-11T11:09:24.969Z,15.02
2022-10-11T11:10:25.139Z,14.99
2022-10-11T11:11:24.957Z,14.98
2022-10-11T11:12:25.167Z,15.06
2022-10-11T11:13:24.963Z,15.13
2022-10-11T11:14:24.929Z,15.21
2022-10-11T11:15:31.992Z,15.23
2022-10-11T11:16:25.874Z,15.02
2022-10-11T11:17:24.891Z,14.84
2022-10-11T11:18:24.855Z,14.87
2022-10-11T11:19:24.933Z,14.94
2022-10-11T11:20:24.841Z,15.05
2022-10-11T11:21:24.828Z,15.13
2022-10-11T11:22:28.044Z,15.20
2022-10-11T11:23:25.864Z,15.24
2022-10-11T11:24:25.859Z,15.24
2022-10-11T11:25:24.925Z,15.23
2022-10-11T11:26:24.758Z,15.24
2022-10-11T11:27:24.735Z,15.36
2022-10-11T11:28:24.961Z,15.38
2022-10-11T11:29:24.737Z,15.43
2022-10-11T11:30:24.783Z,15.59
2022-10-11T11:31:24.702Z,15.64
2022-10-11T11:32:24.649Z,15.61
2022-10-11T11:33:24.632Z,15.64
2022-10-11T11:34:24.658Z,15.72
2022-10-11T11:35:25.417Z,15.82
2022-10-11T11:36:24.616Z,15.89
2022-10-11T11:37:24.621Z,15.92
2022-10-11T11:38:29.359Z,15.92
2022-10-11T11:39:24.648Z,15.94
2022-10-11T11:40:24.640Z,15.93
2022-10-11T11:41:24.520Z,15.79
2022-10-11T11:42:25.776Z,15.79
2022-10-11T11:43:24.802Z,15.66
2022-10-11T11:44:27.494Z,15.68
2022-10-11T11:45:24.495Z,15.81
2022-10-11T11:46:24.492Z,15.78
2022-10-11T11:47:24.528Z,15.76
2022-10-11T11:48:25.919Z,15.81
2022-10-11T11:49:24.523Z,15.82
2022-10-11T11:50:24.655Z,15.82
2022-10-11T11:51:26.579Z,15.85
2022-10-11T11:52:24.410Z,15.86
2022-10-11T11:53:25.371Z,15.86
2022-10-11T11:54:24.386Z,15.85
2022-10-11T11:55:24.391Z,15.92
2022-10-11T11:56:24.328Z,15.97
2022-10-11T11:57:24.414Z,16.00
2022-10-11T11:58:24.317Z,16.01
2022-10-11T11:59:24.421Z,15.99
2022-10-11T12:00:24.335Z,15.92
2022-10-11T12:01:28.827Z,15.84
2022-10-11T12:02:25.322Z,15.82
2022-10-11T12:03:25.301Z,15.86
2022-10-11T12:04:24.240Z,15.84
2022-10-11T12:05:24.268Z,15.84
2022-10-11T12:06:24.237Z,15.74
2022-10-11T12:07:24.186Z,15.76
2022-10-11T12:08:25.196Z,15.75
2022-10-11T12:09:24.153Z,15.68
2022-10-11T12:10:24.168Z,15.52
2022-10-11T12:11:24.172Z,15.38
2022-10-11T12:12:24.142Z,15.36
2022-10-11T12:13:27.246Z,15.26
2022-10-11T12:14:25.085Z,15.21
2022-10-11T12:15:24.518Z,15.26
2022-10-11T12:16:24.109Z,15.33
2022-10-11T12:17:24.149Z,15.39
2022-10-11T12:18:24.088Z,15.42
2022-10-11T12:19:24.029Z,15.39
2022-10-11T12:20:24.073Z,15.31
2022-10-11T12:21:24.022Z,15.28
2022-10-11T12:22:23.991Z,15.26
2022-10-11T12:23:23.989Z,15.26
2022-10-11T12:24:23.951Z,15.36
2022-10-11T12:25:23.937Z,15.42
2022-10-11T12:26:23.949Z,15.48
2022-10-11T12:27:23.996Z,15.57
2022-10-11T12:28:23.936Z,15.60
2022-10-11T12:29:28.481Z,15.68
2022-10-11T12:30:24.904Z,15.68
2022-10-11T12:31:23.862Z,15.66
2022-10-11T12:32:23.863Z,15.72
2022-10-11T12:33:23.847Z,15.70
2022-10-11T12:34:23.834Z,15.66
2022-10-11T12:35:23.804Z,15.66
2022-10-11T12:36:23.824Z,15.57
2022-10-11T12:37:23.824Z,15.46
2022-10-11T12:38:23.880Z,15.42
2022-10-11T12:39:23.787Z,15.42
2022-10-11T12:40:23.787Z,15.43
2022-10-11T12:41:23.755Z,15.39
2022-10-11T12:42:23.764Z,15.35
2022-10-11T12:43:23.750Z,15.31
2022-10-11T12:44:23.759Z,15.30
2022-10-11T12:45:23.704Z,15.17
2022-10-11T12:46:23.698Z,15.08
2022-10-11T12:47:23.697Z,15.05
2022-10-11T12:48:25.575Z,15.02
2022-10-11T12:49:23.637Z,15.08
2022-10-11T12:50:23.658Z,15.11
2022-10-11T12:51:23.653Z,15.15
2022-10-11T12:52:23.601Z,15.21
2022-10-11T12:53:23.662Z,15.23
2022-10-11T12:54:29.831Z,15.17
2022-10-11T12:55:24.631Z,15.19
2022-10-11T12:56:23.533Z,15.13
2022-10-11T12:57:23.575Z,15.17
2022-10-11T12:58:24.623Z,15.21
2022-10-11T12:59:23.580Z,15.21
2022-10-11T13:00:23.563Z,15.15
2022-10-11T13:01:23.604Z,15.20
2022-10-11T13:02:23.452Z,15.15
2022-10-11T13:03:26.163Z,15.20
2022-10-11T13:04:23.681Z,15.12
2022-10-11T13:05:23.460Z,15.08
2022-10-11T13:06:23.480Z,15.15
2022-10-11T13:07:23.406Z,15.19
2022-10-11T13:08:23.424Z,15.20
2022-10-11T13:09:23.581Z,15.17